sensor_id;sensor_type;location;lat;lon;timestamp;P1;durP1;ratioP1;P2;durP2;ratioP2
4700;SDS011;8724;51.272;6.554;2024-02-21T00:00:33;13.30;;;8.70;;
4700;SDS011;8724;51.272;6.554;2024-02-21T00:03:01;17.10;;;9.70;;
4700;SDS011;8724;51.272;6.554;2024-02-21T00:05:30;12.90;;;8.00;;
4700;SDS011;8724;51.272;6.554;2024-02-21T00:08:01;13.47;;;8.27;;
4700;SDS011;8724;51.272;6.554;2024-02-21T00:10:31;21.00;;;10.00;;
4700;SDS011;8724;51.272;6.554;2024-02-21T00:12:59;14.80;;;9.73;;
4700;SDS011;8724;51.272;6.554;2024-02-21T00:15:27;11.43;;;8.40;;
4700;SDS011;8724;51.272;6.554;2024-02-21T00:17:56;14.80;;;8.83;;
4700;SDS011;8724;51.272;6.554;2024-02-21T00:20:24;14.60;;;8.73;;
4700;SDS011;8724;51.272;6.554;2024-02-21T00:22:52;13.23;;;7.80;;
4700;SDS011;8724;51.272;6.554;2024-02-21T00:25:22;11.40;;;7.73;;
4700;SDS011;8724;51.272;6.554;2024-02-21T00:27:51;14.43;;;9.10;;
4700;SDS011;8724;51.272;6.554;2024-02-21T00:30:20;14.00;;;9.40;;
4700;SDS011;8724;51.272;6.554;2024-02-21T00:32:48;12.87;;;8.23;;
4700;SDS011;8724;51.272;6.554;2024-02-21T00:35:16;12.37;;;8.40;;
4700;SDS011;8724;51.272;6.554;2024-02-21T00:37:44;15.53;;;8.40;;
4700;SDS011;8724;51.272;6.554;2024-02-21T00:40:13;13.00;;;7.80;;
4700;SDS011;8724;51.272;6.554;2024-02-21T00:42:47;12.87;;;8.17;;
4700;SDS011;8724;51.272;6.554;2024-02-21T00:45:15;14.83;;;8.97;;
4700;SDS011;8724;51.272;6.554;2024-02-21T00:47:44;13.13;;;8.93;;
4700;SDS011;8724;51.272;6.554;2024-02-21T00:50:12;11.73;;;7.47;;
4700;SDS011;8724;51.272;6.554;2024-02-21T00:52:40;14.87;;;8.77;;
4700;SDS011;8724;51.272;6.554;2024-02-21T00:55:09;15.70;;;8.70;;
4700;SDS011;8724;51.272;6.554;2024-02-21T00:57:37;16.53;;;7.60;;
4700;SDS011;8724;51.272;6.554;2024-02-21T01:00:07;14.00;;;8.90;;
4700;SDS011;8724;51.272;6.554;2024-02-21T01:02:36;15.63;;;8.50;;
4700;SDS011;8724;51.272;6.554;2024-02-21T01:05:04;11.93;;;8.00;;
4700;SDS011;8724;51.272;6.554;2024-02-21T01:07:32;17.13;;;8.57;;
4700;SDS011;8724;51.272;6.554;2024-02-21T01:10:01;14.67;;;8.07;;
4700;SDS011;8724;51.272;6.554;2024-02-21T01:12:29;11.23;;;7.67;;
4700;SDS011;8724;51.272;6.554;2024-02-21T01:14:57;13.23;;;7.03;;
4700;SDS011;8724;51.272;6.554;2024-02-21T01:17:26;11.60;;;7.90;;
4700;SDS011;8724;51.272;6.554;2024-02-21T01:19:54;14.30;;;7.37;;
4700;SDS011;8724;51.272;6.554;2024-02-21T01:22:22;13.97;;;9.23;;
4700;SDS011;8724;51.272;6.554;2024-02-21T01:24:51;13.13;;;7.17;;
4700;SDS011;8724;51.272;6.554;2024-02-21T01:27:19;10.27;;;6.60;;
4700;SDS011;8724;51.272;6.554;2024-02-21T01:29:47;12.60;;;7.30;;
4700;SDS011;8724;51.272;6.554;2024-02-21T01:32:16;13.00;;;7.83;;
4700;SDS011;8724;51.272;6.554;2024-02-21T01:34:45;10.70;;;6.17;;
4700;SDS011;8724;51.272;6.554;2024-02-21T01:37:13;11.80;;;7.27;;
4700;SDS011;8724;51.272;6.554;2024-02-21T01:39:41;14.07;;;6.67;;
4700;SDS011;8724;51.272;6.554;2024-02-21T01:42:09;15.40;;;6.20;;
4700;SDS011;8724;51.272;6.554;2024-02-21T01:44:37;12.93;;;6.50;;
4700;SDS011;8724;51.272;6.554;2024-02-21T01:47:05;11.03;;;6.53;;
4700;SDS011;8724;51.272;6.554;2024-02-21T01:49:34;12.23;;;5.90;;
4700;SDS011;8724;51.272;6.554;2024-02-21T01:52:04;10.63;;;6.40;;
4700;SDS011;8724;51.272;6.554;2024-02-21T01:54:33;10.97;;;6.10;;
4700;SDS011;8724;51.272;6.554;2024-02-21T01:57:01;9.67;;;6.73;;
4700;SDS011;8724;51.272;6.554;2024-02-21T01:59:29;12.43;;;6.60;;
4700;SDS011;8724;51.272;6.554;2024-02-21T02:01:57;12.40;;;6.70;;
4700;SDS011;8724;51.272;6.554;2024-02-21T02:04:27;10.77;;;6.70;;
4700;SDS011;8724;51.272;6.554;2024-02-21T02:06:56;14.10;;;7.23;;
4700;SDS011;8724;51.272;6.554;2024-02-21T02:09:28;10.97;;;6.50;;
4700;SDS011;8724;51.272;6.554;2024-02-21T02:11:57;12.07;;;7.40;;
4700;SDS011;8724;51.272;6.554;2024-02-21T02:14:26;14.33;;;7.10;;
4700;SDS011;8724;51.272;6.554;2024-02-21T02:16:54;11.77;;;6.63;;
4700;SDS011;8724;51.272;6.554;2024-02-21T02:19:22;12.97;;;6.67;;
4700;SDS011;8724;51.272;6.554;2024-02-21T02:21:53;14.30;;;6.80;;
4700;SDS011;8724;51.272;6.554;2024-02-21T02:24:29;10.67;;;6.90;;
4700;SDS011;8724;51.272;6.554;2024-02-21T02:26:57;12.97;;;7.97;;
4700;SDS011;8724;51.272;6.554;2024-02-21T02:29:25;12.87;;;7.60;;
4700;SDS011;8724;51.272;6.554;2024-02-21T02:31:53;12.10;;;6.87;;
4700;SDS011;8724;51.272;6.554;2024-02-21T02:34:21;11.57;;;6.97;;
4700;SDS011;8724;51.272;6.554;2024-02-21T02:36:49;11.63;;;6.73;;
4700;SDS011;8724;51.272;6.554;2024-02-21T02:39:17;13.13;;;6.20;;
4700;SDS011;8724;51.272;6.554;2024-02-21T02:41:47;12.07;;;6.80;;
4700;SDS011;8724;51.272;6.554;2024-02-21T02:44:15;14.23;;;7.50;;
4700;SDS011;8724;51.272;6.554;2024-02-21T02:46:43;13.67;;;6.97;;
4700;SDS011;8724;51.272;6.554;2024-02-21T02:49:11;13.43;;;6.87;;
4700;SDS011;8724;51.272;6.554;2024-02-21T02:51:41;12.27;;;6.90;;
4700;SDS011;8724;51.272;6.554;2024-02-21T02:54:09;17.57;;;7.03;;
4700;SDS011;8724;51.272;6.554;2024-02-21T02:56:38;14.50;;;6.40;;
4700;SDS011;8724;51.272;6.554;2024-02-21T02:59:08;12.90;;;6.20;;
4700;SDS011;8724;51.272;6.554;2024-02-21T03:01:36;15.67;;;6.90;;
4700;SDS011;8724;51.272;6.554;2024-02-21T03:04:05;8.97;;;6.37;;
4700;SDS011;8724;51.272;6.554;2024-02-21T03:06:33;11.00;;;5.80;;
4700;SDS011;8724;51.272;6.554;2024-02-21T03:09:01;9.70;;;6.27;;
4700;SDS011;8724;51.272;6.554;2024-02-21T03:11:35;15.83;;;6.77;;
4700;SDS011;8724;51.272;6.554;2024-02-21T03:14:08;14.00;;;6.03;;
4700;SDS011;8724;51.272;6.554;2024-02-21T03:16:36;8.83;;;6.43;;
4700;SDS011;8724;51.272;6.554;2024-02-21T03:19:04;10.23;;;6.37;;
4700;SDS011;8724;51.272;6.554;2024-02-21T03:21:33;10.90;;;6.73;;
4700;SDS011;8724;51.272;6.554;2024-02-21T03:24:01;16.20;;;6.90;;
4700;SDS011;8724;51.272;6.554;2024-02-21T03:26:30;12.23;;;6.03;;
4700;SDS011;8724;51.272;6.554;2024-02-21T03:28:58;9.80;;;6.87;;
4700;SDS011;8724;51.272;6.554;2024-02-21T03:31:27;10.80;;;5.60;;
4700;SDS011;8724;51.272;6.554;2024-02-21T03:33:58;10.60;;;6.30;;
4700;SDS011;8724;51.272;6.554;2024-02-21T03:36:26;13.33;;;7.30;;
4700;SDS011;8724;51.272;6.554;2024-02-21T03:38:54;15.53;;;7.07;;
4700;SDS011;8724;51.272;6.554;2024-02-21T03:41:22;10.00;;;6.40;;
4700;SDS011;8724;51.272;6.554;2024-02-21T03:43:51;11.77;;;5.73;;
4700;SDS011;8724;51.272;6.554;2024-02-21T03:46:19;11.57;;;6.30;;
4700;SDS011;8724;51.272;6.554;2024-02-21T03:48:49;10.67;;;5.23;;
4700;SDS011;8724;51.272;6.554;2024-02-21T03:51:17;9.77;;;5.27;;
4700;SDS011;8724;51.272;6.554;2024-02-21T03:53:45;11.70;;;6.50;;
4700;SDS011;8724;51.272;6.554;2024-02-21T03:56:13;12.67;;;6.60;;
4700;SDS011;8724;51.272;6.554;2024-02-21T03:58:41;14.37;;;6.43;;
4700;SDS011;8724;51.272;6.554;2024-02-21T04:01:09;10.50;;;6.00;;
4700;SDS011;8724;51.272;6.554;2024-02-21T04:03:38;9.60;;;5.80;;
4700;SDS011;8724;51.272;6.554;2024-02-21T04:06:08;8.80;;;5.23;;
4700;SDS011;8724;51.272;6.554;2024-02-21T04:08:36;14.10;;;7.23;;
4700;SDS011;8724;51.272;6.554;2024-02-21T04:11:04;8.93;;;6.10;;
4700;SDS011;8724;51.272;6.554;2024-02-21T04:13:32;9.60;;;5.50;;
4700;SDS011;8724;51.272;6.554;2024-02-21T04:16:01;12.50;;;6.63;;
4700;SDS011;8724;51.272;6.554;2024-02-21T04:18:29;8.43;;;6.20;;
4700;SDS011;8724;51.272;6.554;2024-02-21T04:20:58;11.83;;;5.10;;
4700;SDS011;8724;51.272;6.554;2024-02-21T04:23:27;8.90;;;4.90;;
4700;SDS011;8724;51.272;6.554;2024-02-21T04:25:55;9.37;;;5.90;;
4700;SDS011;8724;51.272;6.554;2024-02-21T04:28:23;9.87;;;5.87;;
4700;SDS011;8724;51.272;6.554;2024-02-21T04:30:52;6.20;;;4.80;;
4700;SDS011;8724;51.272;6.554;2024-02-21T04:33:20;8.20;;;5.93;;
4700;SDS011;8724;51.272;6.554;2024-02-21T04:35:48;6.90;;;4.97;;
4700;SDS011;8724;51.272;6.554;2024-02-21T04:38:16;9.07;;;5.27;;
4700;SDS011;8724;51.272;6.554;2024-02-21T04:40:45;10.67;;;5.60;;
4700;SDS011;8724;51.272;6.554;2024-02-21T04:43:14;11.60;;;5.43;;
4700;SDS011;8724;51.272;6.554;2024-02-21T04:45:42;7.83;;;5.07;;
4700;SDS011;8724;51.272;6.554;2024-02-21T04:48:10;7.40;;;5.00;;
4700;SDS011;8724;51.272;6.554;2024-02-21T04:50:38;5.50;;;4.50;;
4700;SDS011;8724;51.272;6.554;2024-02-21T04:53:08;7.40;;;5.20;;
4700;SDS011;8724;51.272;6.554;2024-02-21T04:55:36;7.30;;;4.47;;
4700;SDS011;8724;51.272;6.554;2024-02-21T04:58:05;6.33;;;5.43;;
4700;SDS011;8724;51.272;6.554;2024-02-21T05:00:33;6.37;;;4.40;;
4700;SDS011;8724;51.272;6.554;2024-02-21T05:03:01;7.83;;;4.97;;
4700;SDS011;8724;51.272;6.554;2024-02-21T05:05:30;9.00;;;5.00;;
4700;SDS011;8724;51.272;6.554;2024-02-21T05:07:59;6.60;;;4.53;;
4700;SDS011;8724;51.272;6.554;2024-02-21T05:10:27;9.43;;;4.70;;
4700;SDS011;8724;51.272;6.554;2024-02-21T05:12:55;8.57;;;5.30;;
4700;SDS011;8724;51.272;6.554;2024-02-21T05:15:25;11.37;;;5.10;;
4700;SDS011;8724;51.272;6.554;2024-02-21T05:17:53;8.80;;;6.00;;
4700;SDS011;8724;51.272;6.554;2024-02-21T05:20:21;12.53;;;4.73;;
4700;SDS011;8724;51.272;6.554;2024-02-21T05:22:49;10.67;;;5.23;;
4700;SDS011;8724;51.272;6.554;2024-02-21T05:25:17;6.70;;;4.27;;
4700;SDS011;8724;51.272;6.554;2024-02-21T05:27:46;8.60;;;4.47;;
4700;SDS011;8724;51.272;6.554;2024-02-21T05:30:14;7.23;;;4.60;;
4700;SDS011;8724;51.272;6.554;2024-02-21T05:32:44;9.90;;;5.23;;
4700;SDS011;8724;51.272;6.554;2024-02-21T05:35:12;13.63;;;4.77;;
4700;SDS011;8724;51.272;6.554;2024-02-21T05:37:40;9.27;;;4.20;;
4700;SDS011;8724;51.272;6.554;2024-02-21T05:40:09;7.77;;;4.80;;
4700;SDS011;8724;51.272;6.554;2024-02-21T05:42:39;7.30;;;3.97;;
4700;SDS011;8724;51.272;6.554;2024-02-21T05:45:07;6.83;;;4.20;;
4700;SDS011;8724;51.272;6.554;2024-02-21T05:47:36;9.63;;;4.57;;
4700;SDS011;8724;51.272;6.554;2024-02-21T05:50:06;15.30;;;5.50;;
4700;SDS011;8724;51.272;6.554;2024-02-21T05:52:35;8.20;;;4.23;;
4700;SDS011;8724;51.272;6.554;2024-02-21T05:55:03;8.97;;;4.20;;
4700;SDS011;8724;51.272;6.554;2024-02-21T05:57:33;6.40;;;3.80;;
4700;SDS011;8724;51.272;6.554;2024-02-21T06:00:03;7.07;;;4.10;;
4700;SDS011;8724;51.272;6.554;2024-02-21T06:02:37;8.50;;;4.47;;
4700;SDS011;8724;51.272;6.554;2024-02-21T06:05:08;7.73;;;3.73;;
4700;SDS011;8724;51.272;6.554;2024-02-21T06:07:36;6.63;;;4.23;;
4700;SDS011;8724;51.272;6.554;2024-02-21T06:10:06;6.13;;;4.70;;
4700;SDS011;8724;51.272;6.554;2024-02-21T06:12:35;6.70;;;3.87;;
4700;SDS011;8724;51.272;6.554;2024-02-21T06:15:03;8.30;;;4.57;;
4700;SDS011;8724;51.272;6.554;2024-02-21T06:17:31;8.23;;;4.17;;
4700;SDS011;8724;51.272;6.554;2024-02-21T06:20:00;6.37;;;4.30;;
4700;SDS011;8724;51.272;6.554;2024-02-21T06:22:30;6.30;;;3.70;;
4700;SDS011;8724;51.272;6.554;2024-02-21T06:24:58;10.50;;;4.20;;
4700;SDS011;8724;51.272;6.554;2024-02-21T06:27:26;11.53;;;5.10;;
4700;SDS011;8724;51.272;6.554;2024-02-21T06:29:54;7.87;;;4.37;;
4700;SDS011;8724;51.272;6.554;2024-02-21T06:32:22;9.43;;;4.40;;
4700;SDS011;8724;51.272;6.554;2024-02-21T06:34:50;9.40;;;4.57;;
4700;SDS011;8724;51.272;6.554;2024-02-21T06:37:18;8.97;;;5.00;;
4700;SDS011;8724;51.272;6.554;2024-02-21T06:39:48;7.57;;;4.30;;
4700;SDS011;8724;51.272;6.554;2024-02-21T06:42:16;5.73;;;3.70;;
4700;SDS011;8724;51.272;6.554;2024-02-21T06:44:44;8.33;;;4.70;;
4700;SDS011;8724;51.272;6.554;2024-02-21T06:47:12;13.90;;;4.00;;
4700;SDS011;8724;51.272;6.554;2024-02-21T06:49:41;9.17;;;4.47;;
4700;SDS011;8724;51.272;6.554;2024-02-21T06:52:09;6.80;;;4.47;;
4700;SDS011;8724;51.272;6.554;2024-02-21T06:54:38;6.90;;;4.00;;
4700;SDS011;8724;51.272;6.554;2024-02-21T06:57:08;6.00;;;3.90;;
4700;SDS011;8724;51.272;6.554;2024-02-21T06:59:36;6.80;;;4.27;;
4700;SDS011;8724;51.272;6.554;2024-02-21T07:02:05;6.57;;;4.10;;
4700;SDS011;8724;51.272;6.554;2024-02-21T07:04:34;9.60;;;4.50;;
4700;SDS011;8724;51.272;6.554;2024-02-21T07:07:03;8.27;;;4.70;;
4700;SDS011;8724;51.272;6.554;2024-02-21T07:09:31;6.37;;;4.10;;
4700;SDS011;8724;51.272;6.554;2024-02-21T07:11:59;9.23;;;4.30;;
4700;SDS011;8724;51.272;6.554;2024-02-21T07:14:29;8.50;;;4.57;;
4700;SDS011;8724;51.272;6.554;2024-02-21T07:16:57;5.80;;;3.90;;
4700;SDS011;8724;51.272;6.554;2024-02-21T07:19:25;5.60;;;3.57;;
4700;SDS011;8724;51.272;6.554;2024-02-21T07:21:53;6.73;;;4.33;;
4700;SDS011;8724;51.272;6.554;2024-02-21T07:24:23;4.67;;;3.90;;
4700;SDS011;8724;51.272;6.554;2024-02-21T07:26:52;5.83;;;3.57;;
4700;SDS011;8724;51.272;6.554;2024-02-21T07:29:20;10.27;;;4.50;;
4700;SDS011;8724;51.272;6.554;2024-02-21T07:31:50;4.30;;;3.87;;
4700;SDS011;8724;51.272;6.554;2024-02-21T07:34:18;5.20;;;3.37;;
4700;SDS011;8724;51.272;6.554;2024-02-21T07:36:46;7.43;;;4.10;;
4700;SDS011;8724;51.272;6.554;2024-02-21T07:39:15;3.90;;;2.80;;
4700;SDS011;8724;51.272;6.554;2024-02-21T07:41:43;9.30;;;4.73;;
4700;SDS011;8724;51.272;6.554;2024-02-21T07:44:12;7.37;;;3.00;;
4700;SDS011;8724;51.272;6.554;2024-02-21T07:46:40;11.70;;;3.40;;
4700;SDS011;8724;51.272;6.554;2024-02-21T07:49:10;7.20;;;3.50;;
4700;SDS011;8724;51.272;6.554;2024-02-21T07:51:38;8.60;;;4.30;;
4700;SDS011;8724;51.272;6.554;2024-02-21T07:54:08;6.87;;;3.30;;
4700;SDS011;8724;51.272;6.554;2024-02-21T07:56:42;7.00;;;3.80;;
4700;SDS011;8724;51.272;6.554;2024-02-21T07:59:10;7.60;;;3.77;;
4700;SDS011;8724;51.272;6.554;2024-02-21T08:01:39;8.53;;;4.13;;
4700;SDS011;8724;51.272;6.554;2024-02-21T08:04:09;7.97;;;3.93;;
4700;SDS011;8724;51.272;6.554;2024-02-21T08:06:38;7.37;;;3.70;;
4700;SDS011;8724;51.272;6.554;2024-02-21T08:09:06;6.43;;;3.67;;
4700;SDS011;8724;51.272;6.554;2024-02-21T08:11:35;8.73;;;3.80;;
4700;SDS011;8724;51.272;6.554;2024-02-21T08:14:03;7.97;;;3.57;;
4700;SDS011;8724;51.272;6.554;2024-02-21T08:16:31;12.10;;;4.50;;
4700;SDS011;8724;51.272;6.554;2024-02-21T08:18:59;6.37;;;3.70;;
4700;SDS011;8724;51.272;6.554;2024-02-21T08:21:30;6.80;;;4.00;;
4700;SDS011;8724;51.272;6.554;2024-02-21T08:23:59;10.20;;;3.30;;
4700;SDS011;8724;51.272;6.554;2024-02-21T08:26:27;9.90;;;3.83;;
4700;SDS011;8724;51.272;6.554;2024-02-21T08:28:57;6.00;;;3.30;;
4700;SDS011;8724;51.272;6.554;2024-02-21T08:31:26;4.70;;;3.13;;
4700;SDS011;8724;51.272;6.554;2024-02-21T08:33:57;7.70;;;3.40;;
4700;SDS011;8724;51.272;6.554;2024-02-21T08:36:30;9.40;;;3.20;;
4700;SDS011;8724;51.272;6.554;2024-02-21T08:38:59;7.37;;;2.80;;
4700;SDS011;8724;51.272;6.554;2024-02-21T08:41:30;5.53;;;3.40;;
4700;SDS011;8724;51.272;6.554;2024-02-21T08:44:17;6.53;;;3.83;;
4700;SDS011;8724;51.272;6.554;2024-02-21T08:46:45;9.77;;;4.40;;
4700;SDS011;8724;51.272;6.554;2024-02-21T08:49:13;4.80;;;3.37;;
4700;SDS011;8724;51.272;6.554;2024-02-21T08:51:43;8.70;;;4.50;;
4700;SDS011;8724;51.272;6.554;2024-02-21T08:54:13;6.47;;;3.30;;
4700;SDS011;8724;51.272;6.554;2024-02-21T08:56:41;5.07;;;3.30;;
4700;SDS011;8724;51.272;6.554;2024-02-21T08:59:09;6.53;;;3.47;;
4700;SDS011;8724;51.272;6.554;2024-02-21T09:01:37;7.70;;;3.80;;
4700;SDS011;8724;51.272;6.554;2024-02-21T09:04:06;7.80;;;3.40;;
4700;SDS011;8724;51.272;6.554;2024-02-21T09:06:34;4.30;;;3.20;;
4700;SDS011;8724;51.272;6.554;2024-02-21T09:09:07;9.97;;;3.23;;
4700;SDS011;8724;51.272;6.554;2024-02-21T09:11:35;15.10;;;3.60;;
4700;SDS011;8724;51.272;6.554;2024-02-21T09:14:03;6.50;;;2.97;;
4700;SDS011;8724;51.272;6.554;2024-02-21T09:16:32;4.43;;;3.00;;
4700;SDS011;8724;51.272;6.554;2024-02-21T09:19:00;4.37;;;2.73;;
4700;SDS011;8724;51.272;6.554;2024-02-21T09:21:28;4.10;;;2.80;;
4700;SDS011;8724;51.272;6.554;2024-02-21T09:23:56;5.17;;;3.40;;
4700;SDS011;8724;51.272;6.554;2024-02-21T09:26:27;6.43;;;4.27;;
4700;SDS011;8724;51.272;6.554;2024-02-21T09:28:55;5.40;;;2.60;;
4700;SDS011;8724;51.272;6.554;2024-02-21T09:31:24;5.60;;;2.90;;
4700;SDS011;8724;51.272;6.554;2024-02-21T09:33:52;5.20;;;2.73;;
4700;SDS011;8724;51.272;6.554;2024-02-21T09:36:20;4.60;;;2.83;;
4700;SDS011;8724;51.272;6.554;2024-02-21T09:38:48;6.40;;;2.70;;
4700;SDS011;8724;51.272;6.554;2024-02-21T09:41:17;7.70;;;3.30;;
4700;SDS011;8724;51.272;6.554;2024-02-21T09:43:53;5.20;;;2.40;;
4700;SDS011;8724;51.272;6.554;2024-02-21T09:46:24;4.20;;;2.53;;
4700;SDS011;8724;51.272;6.554;2024-02-21T09:49:04;7.60;;;2.27;;
4700;SDS011;8724;51.272;6.554;2024-02-21T09:51:41;5.57;;;3.30;;
4700;SDS011;8724;51.272;6.554;2024-02-21T09:54:11;4.53;;;2.27;;
4700;SDS011;8724;51.272;6.554;2024-02-21T09:56:44;5.57;;;2.77;;
4700;SDS011;8724;51.272;6.554;2024-02-21T09:59:14;3.10;;;2.80;;
4700;SDS011;8724;51.272;6.554;2024-02-21T10:01:43;3.73;;;2.60;;
4700;SDS011;8724;51.272;6.554;2024-02-21T10:04:14;8.57;;;2.57;;
4700;SDS011;8724;51.272;6.554;2024-02-21T10:06:42;7.77;;;3.40;;
4700;SDS011;8724;51.272;6.554;2024-02-21T10:09:19;4.80;;;2.90;;
4700;SDS011;8724;51.272;6.554;2024-02-21T10:11:49;6.63;;;2.43;;
4700;SDS011;8724;51.272;6.554;2024-02-21T10:14:19;8.63;;;2.53;;
4700;SDS011;8724;51.272;6.554;2024-02-21T10:16:48;4.00;;;2.83;;
4700;SDS011;8724;51.272;6.554;2024-02-21T10:19:23;3.73;;;2.30;;
4700;SDS011;8724;51.272;6.554;2024-02-21T10:21:59;4.10;;;2.33;;
4700;SDS011;8724;51.272;6.554;2024-02-21T10:24:30;4.27;;;2.27;;
4700;SDS011;8724;51.272;6.554;2024-02-21T10:26:59;4.10;;;1.90;;
4700;SDS011;8724;51.272;6.554;2024-02-21T10:29:31;5.90;;;2.50;;
4700;SDS011;8724;51.272;6.554;2024-02-21T10:32:06;4.83;;;2.60;;
4700;SDS011;8724;51.272;6.554;2024-02-21T10:34:35;3.77;;;2.57;;
4700;SDS011;8724;51.272;6.554;2024-02-21T10:37:05;3.97;;;2.10;;
4700;SDS011;8724;51.272;6.554;2024-02-21T10:39:34;5.27;;;2.23;;
4700;SDS011;8724;51.272;6.554;2024-02-21T10:42:03;4.77;;;2.27;;
4700;SDS011;8724;51.272;6.554;2024-02-21T10:44:34;2.83;;;2.10;;
4700;SDS011;8724;51.272;6.554;2024-02-21T10:47:07;5.23;;;2.50;;
4700;SDS011;8724;51.272;6.554;2024-02-21T10:49:37;5.40;;;2.50;;
4700;SDS011;8724;51.272;6.554;2024-02-21T10:52:09;3.13;;;2.43;;
4700;SDS011;8724;51.272;6.554;2024-02-21T10:54:44;5.20;;;2.53;;
4700;SDS011;8724;51.272;6.554;2024-02-21T10:57:16;2.80;;;2.43;;
4700;SDS011;8724;51.272;6.554;2024-02-21T10:59:46;4.73;;;2.13;;
4700;SDS011;8724;51.272;6.554;2024-02-21T11:02:16;6.07;;;2.50;;
4700;SDS011;8724;51.272;6.554;2024-02-21T11:04:46;2.97;;;2.43;;
4700;SDS011;8724;51.272;6.554;2024-02-21T11:07:15;4.33;;;2.50;;
4700;SDS011;8724;51.272;6.554;2024-02-21T11:09:50;5.53;;;2.63;;
4700;SDS011;8724;51.272;6.554;2024-02-21T11:12:19;4.47;;;2.13;;
4700;SDS011;8724;51.272;6.554;2024-02-21T11:14:50;5.97;;;2.80;;
4700;SDS011;8724;51.272;6.554;2024-02-21T11:17:18;2.90;;;2.20;;
4700;SDS011;8724;51.272;6.554;2024-02-21T11:19:51;4.27;;;2.50;;
4700;SDS011;8724;51.272;6.554;2024-02-21T11:22:19;7.30;;;3.97;;
4700;SDS011;8724;51.272;6.554;2024-02-21T11:24:49;5.60;;;2.87;;
4700;SDS011;8724;51.272;6.554;2024-02-21T11:27:18;4.83;;;2.73;;
4700;SDS011;8724;51.272;6.554;2024-02-21T11:29:48;3.80;;;2.30;;
4700;SDS011;8724;51.272;6.554;2024-02-21T11:32:22;2.17;;;1.97;;
4700;SDS011;8724;51.272;6.554;2024-02-21T11:34:54;3.63;;;2.17;;
4700;SDS011;8724;51.272;6.554;2024-02-21T11:37:24;4.07;;;2.80;;
4700;SDS011;8724;51.272;6.554;2024-02-21T11:39:53;6.60;;;2.67;;
4700;SDS011;8724;51.272;6.554;2024-02-21T11:42:22;6.30;;;2.00;;
4700;SDS011;8724;51.272;6.554;2024-02-21T11:44:53;5.27;;;2.50;;
4700;SDS011;8724;51.272;6.554;2024-02-21T11:47:23;6.03;;;2.80;;
4700;SDS011;8724;51.272;6.554;2024-02-21T11:49:51;2.33;;;1.90;;
4700;SDS011;8724;51.272;6.554;2024-02-21T11:52:21;3.50;;;2.17;;
4700;SDS011;8724;51.272;6.554;2024-02-21T11:54:52;6.53;;;2.53;;
4700;SDS011;8724;51.272;6.554;2024-02-21T11:57:24;3.60;;;2.50;;
4700;SDS011;8724;51.272;6.554;2024-02-21T11:59:53;4.53;;;1.90;;
4700;SDS011;8724;51.272;6.554;2024-02-21T12:02:26;3.17;;;1.83;;
4700;SDS011;8724;51.272;6.554;2024-02-21T12:04:55;5.53;;;2.13;;
4700;SDS011;8724;51.272;6.554;2024-02-21T12:07:23;4.20;;;2.67;;
4700;SDS011;8724;51.272;6.554;2024-02-21T12:09:52;7.83;;;2.40;;
4700;SDS011;8724;51.272;6.554;2024-02-21T12:12:20;3.20;;;1.93;;
4700;SDS011;8724;51.272;6.554;2024-02-21T12:14:55;3.13;;;2.23;;
4700;SDS011;8724;51.272;6.554;2024-02-21T12:17:24;4.43;;;3.10;;
4700;SDS011;8724;51.272;6.554;2024-02-21T12:19:53;6.50;;;2.40;;
4700;SDS011;8724;51.272;6.554;2024-02-21T12:22:21;4.43;;;2.73;;
4700;SDS011;8724;51.272;6.554;2024-02-21T12:24:49;3.40;;;2.43;;
4700;SDS011;8724;51.272;6.554;2024-02-21T12:27:17;5.30;;;2.87;;
4700;SDS011;8724;51.272;6.554;2024-02-21T12:29:46;2.90;;;2.10;;
4700;SDS011;8724;51.272;6.554;2024-02-21T12:32:16;4.43;;;3.10;;
4700;SDS011;8724;51.272;6.554;2024-02-21T12:34:44;4.03;;;2.53;;
4700;SDS011;8724;51.272;6.554;2024-02-21T12:37:21;7.67;;;3.20;;
4700;SDS011;8724;51.272;6.554;2024-02-21T12:39:50;4.53;;;2.10;;
4700;SDS011;8724;51.272;6.554;2024-02-21T12:42:18;5.27;;;2.03;;
4700;SDS011;8724;51.272;6.554;2024-02-21T12:44:46;5.07;;;2.80;;
4700;SDS011;8724;51.272;6.554;2024-02-21T12:47:16;5.17;;;2.50;;
4700;SDS011;8724;51.272;6.554;2024-02-21T12:49:48;9.00;;;2.53;;
4700;SDS011;8724;51.272;6.554;2024-02-21T12:52:16;4.80;;;2.37;;
4700;SDS011;8724;51.272;6.554;2024-02-21T12:54:45;7.23;;;2.77;;
4700;SDS011;8724;51.272;6.554;2024-02-21T12:57:13;4.00;;;2.53;;
4700;SDS011;8724;51.272;6.554;2024-02-21T12:59:41;3.80;;;2.97;;
4700;SDS011;8724;51.272;6.554;2024-02-21T13:02:09;2.90;;;2.13;;
4700;SDS011;8724;51.272;6.554;2024-02-21T13:04:39;4.83;;;2.83;;
4700;SDS011;8724;51.272;6.554;2024-02-21T13:07:08;3.53;;;2.43;;
4700;SDS011;8724;51.272;6.554;2024-02-21T13:09:36;6.40;;;2.37;;
4700;SDS011;8724;51.272;6.554;2024-02-21T13:12:04;1.97;;;1.67;;
4700;SDS011;8724;51.272;6.554;2024-02-21T13:14:33;2.23;;;1.80;;
4700;SDS011;8724;51.272;6.554;2024-02-21T13:17:01;5.43;;;2.63;;
4700;SDS011;8724;51.272;6.554;2024-02-21T13:19:30;5.80;;;2.50;;
4700;SDS011;8724;51.272;6.554;2024-02-21T13:21:59;5.93;;;2.60;;
4700;SDS011;8724;51.272;6.554;2024-02-21T13:24:29;7.03;;;2.23;;
4700;SDS011;8724;51.272;6.554;2024-02-21T13:26:57;3.80;;;2.47;;
4700;SDS011;8724;51.272;6.554;2024-02-21T13:29:26;5.33;;;2.30;;
4700;SDS011;8724;51.272;6.554;2024-02-21T13:31:54;6.73;;;2.40;;
4700;SDS011;8724;51.272;6.554;2024-02-21T13:34:23;4.37;;;2.43;;
4700;SDS011;8724;51.272;6.554;2024-02-21T13:36:51;5.03;;;2.17;;
4700;SDS011;8724;51.272;6.554;2024-02-21T13:39:21;3.50;;;2.50;;
4700;SDS011;8724;51.272;6.554;2024-02-21T13:41:49;3.23;;;2.07;;
4700;SDS011;8724;51.272;6.554;2024-02-21T13:44:17;2.60;;;1.80;;
4700;SDS011;8724;51.272;6.554;2024-02-21T13:46:45;1.97;;;1.40;;
4700;SDS011;8724;51.272;6.554;2024-02-21T13:49:15;2.70;;;2.00;;
4700;SDS011;8724;51.272;6.554;2024-02-21T13:51:43;3.73;;;2.23;;
4700;SDS011;8724;51.272;6.554;2024-02-21T13:54:12;6.13;;;2.40;;
4700;SDS011;8724;51.272;6.554;2024-02-21T13:56:44;3.43;;;2.07;;
4700;SDS011;8724;51.272;6.554;2024-02-21T13:59:13;5.33;;;2.40;;
4700;SDS011;8724;51.272;6.554;2024-02-21T14:01:41;3.47;;;2.30;;
4700;SDS011;8724;51.272;6.554;2024-02-21T14:04:09;4.93;;;2.17;;
4700;SDS011;8724;51.272;6.554;2024-02-21T14:06:38;4.03;;;2.20;;
4700;SDS011;8724;51.272;6.554;2024-02-21T14:09:09;3.30;;;2.37;;
4700;SDS011;8724;51.272;6.554;2024-02-21T14:11:38;5.57;;;2.30;;
4700;SDS011;8724;51.272;6.554;2024-02-21T14:14:07;5.43;;;2.27;;
4700;SDS011;8724;51.272;6.554;2024-02-21T14:16:36;2.90;;;2.17;;
4700;SDS011;8724;51.272;6.554;2024-02-21T14:19:04;4.33;;;2.23;;
4700;SDS011;8724;51.272;6.554;2024-02-21T14:21:33;4.87;;;2.30;;
4700;SDS011;8724;51.272;6.554;2024-02-21T14:24:03;4.00;;;2.10;;
4700;SDS011;8724;51.272;6.554;2024-02-21T14:26:31;3.90;;;2.37;;
4700;SDS011;8724;51.272;6.554;2024-02-21T14:29:00;7.20;;;3.23;;
4700;SDS011;8724;51.272;6.554;2024-02-21T14:31:30;3.93;;;2.20;;
4700;SDS011;8724;51.272;6.554;2024-02-21T14:33:59;3.73;;;2.33;;
4700;SDS011;8724;51.272;6.554;2024-02-21T14:36:29;4.83;;;2.23;;
4700;SDS011;8724;51.272;6.554;2024-02-21T14:38:57;3.10;;;2.00;;
4700;SDS011;8724;51.272;6.554;2024-02-21T14:41:25;2.63;;;1.70;;
4700;SDS011;8724;51.272;6.554;2024-02-21T14:43:54;6.43;;;2.40;;
4700;SDS011;8724;51.272;6.554;2024-02-21T14:46:23;2.80;;;1.60;;
4700;SDS011;8724;51.272;6.554;2024-02-21T14:48:53;3.33;;;2.50;;
4700;SDS011;8724;51.272;6.554;2024-02-21T14:51:24;5.63;;;2.77;;
4700;SDS011;8724;51.272;6.554;2024-02-21T14:53:52;3.27;;;1.90;;
4700;SDS011;8724;51.272;6.554;2024-02-21T14:56:45;2.73;;;1.90;;
4700;SDS011;8724;51.272;6.554;2024-02-21T14:59:13;3.13;;;2.27;;
4700;SDS011;8724;51.272;6.554;2024-02-21T15:01:55;6.73;;;2.37;;
4700;SDS011;8724;51.272;6.554;2024-02-21T15:04:24;7.03;;;2.40;;
4700;SDS011;8724;51.272;6.554;2024-02-21T15:07:01;5.00;;;2.10;;
4700;SDS011;8724;51.272;6.554;2024-02-21T15:09:29;2.93;;;2.03;;
4700;SDS011;8724;51.272;6.554;2024-02-21T15:12:00;2.90;;;1.77;;
4700;SDS011;8724;51.272;6.554;2024-02-21T15:14:28;2.47;;;1.97;;
4700;SDS011;8724;51.272;6.554;2024-02-21T15:19:55;4.30;;;2.30;;
4700;SDS011;8724;51.272;6.554;2024-02-21T15:22:25;4.47;;;2.60;;
4700;SDS011;8724;51.272;6.554;2024-02-21T15:24:53;3.23;;;2.17;;